Weather at Stavanger Airport Sola

Public forecast

Using degrees Celsius for public forecast. Weather courtesy of forecast.io.

Current aviation weather report (METAR) for Stavanger Airport Sola

Retrieved 2020/12/03 10:20 UTC (3 minutes ago):

ENZV 031020Z 12008KT 9999 VCSH FEW015 BKN027 05/03 Q0994 NOSIG

Aviation forecast (TAF) for Stavanger Airport Sola

Retrieved 2020/12/03 06:57 UTC (3 hours ago):

TAF ENZV 030500Z 0306/0406 11012KT 9999 -RA FEW015 BKN045 PROB40 TEMPO 0306/0310 SHRA FEW015CB BKN030